Time;durP1;ratioP1;P1;durP2;ratioP2;P2;SDS_P1;SDS_P2;PMS_P1;PMS_P2;Temp;Humidity;BMP_temperature;BMP_pressure;BME280_temperature;BME280_humidity;BME280_pressure;Samples;Min_cycle;Max_cycle;Signal;HPM_P1;HPM_P2
2022/04/16 00:02:03;;;;;;;14.95;11.13;;;7.80;74.20;;;;;;5063493;28;20484;-68
2022/04/16 00:04:29;;;;;;;15.60;10.43;;;7.80;74.20;;;;;;5044547;28;20040;-68
2022/04/16 00:06:56;;;;;;;16.98;11.45;;;7.80;74.30;;;;;;5053118;28;20123;-68
2022/04/16 00:09:22;;;;;;;15.65;11.35;;;7.80;74.20;;;;;;5066890;28;20115;-68
2022/04/16 00:11:48;;;;;;;15.23;11.60;;;7.80;74.00;;;;;;5036677;28;20125;-68
2022/04/16 00:14:17;;;;;;;14.70;10.23;;;7.90;74.10;;;;;;5045392;28;20075;-68
2022/04/16 00:16:45;;;;;;;15.15;10.85;;;7.80;74.20;;;;;;5039482;28;20044;-68
2022/04/16 00:19:11;;;;;;;15.73;10.75;;;7.80;73.90;;;;;;5049228;28;20473;-68
2022/04/16 00:21:38;;;;;;;15.57;11.10;;;7.90;73.90;;;;;;5049652;28;20542;-68
2022/04/16 00:24:04;;;;;;;13.65;10.82;;;7.90;73.90;;;;;;5041144;28;20044;-68
2022/04/16 00:26:29;;;;;;;13.20;9.88;;;7.90;74.00;;;;;;5060682;28;20052;-68
2022/04/16 00:28:57;;;;;;;15.97;11.30;;;7.90;74.20;;;;;;5057914;28;20040;-68
2022/04/16 00:31:22;;;;;;;14.98;11.30;;;7.90;74.20;;;;;;5028802;28;20456;-68
2022/04/16 00:33:48;;;;;;;16.33;10.77;;;7.90;74.30;;;;;;5038073;28;20124;-68
2022/04/16 00:36:15;;;;;;;14.37;10.80;;;7.90;74.40;;;;;;5052354;28;20060;-68
2022/04/16 00:38:42;;;;;;;16.52;10.35;;;7.90;74.30;;;;;;5045606;28;20040;-68
2022/04/16 00:41:08;;;;;;;17.27;10.65;;;7.90;74.30;;;;;;5060584;28;20146;-68
2022/04/16 00:43:33;;;;;;;14.00;10.80;;;7.90;74.30;;;;;;5042539;28;20052;-68
2022/04/16 00:45:59;;;;;;;16.47;11.00;;;7.90;74.30;;;;;;5037130;28;20044;-68
2022/04/16 00:48:25;;;;;;;13.77;10.73;;;7.90;74.30;;;;;;5039296;28;20051;-68
2022/04/16 00:50:54;;;;;;;14.02;11.05;;;7.90;74.60;;;;;;5036108;28;20036;-68
2022/04/16 00:53:21;;;;;;;15.68;11.85;;;7.90;74.70;;;;;;5047282;28;20110;-68
2022/04/16 00:55:47;;;;;;;16.00;10.73;;;7.90;74.40;;;;;;5039788;28;20144;-68
2022/04/16 00:58:13;;;;;;;15.23;10.77;;;7.80;74.60;;;;;;5058375;28;20044;-68
2022/04/16 01:00:39;;;;;;;15.17;10.57;;;7.80;74.40;;;;;;5035485;28;20050;-68
2022/04/16 01:03:06;;;;;;;18.10;11.80;;;7.80;74.50;;;;;;5031792;28;20076;-68
2022/04/16 01:05:32;;;;;;;15.82;10.63;;;7.80;74.70;;;;;;5050587;28;20032;-68
2022/04/16 01:08:01;;;;;;;15.17;10.77;;;7.80;74.60;;;;;;5048371;28;20033;-68
2022/04/16 01:10:29;;;;;;;20.27;10.85;;;7.80;74.80;;;;;;5030071;28;20036;-68
2022/04/16 01:12:57;;;;;;;16.20;11.07;;;7.80;74.70;;;;;;5042794;28;20048;-68
2022/04/16 01:15:24;;;;;;;13.13;10.30;;;7.80;74.70;;;;;;5045876;28;20054;-68
2022/04/16 01:17:51;;;;;;;16.75;11.48;;;7.80;74.70;;;;;;5050022;28;20474;-68
2022/04/16 01:20:18;;;;;;;15.15;10.93;;;7.80;74.60;;;;;;5047118;28;20040;-68
2022/04/16 01:22:45;;;;;;;16.73;12.27;;;7.80;74.70;;;;;;5039990;28;20045;-68
2022/04/16 01:25:12;;;;;;;16.77;11.05;;;7.90;74.70;;;;;;5042695;28;20147;-68
2022/04/16 01:27:43;;;;;;;14.65;11.13;;;7.90;74.70;;;;;;5056783;28;20075;-68
2022/04/16 01:30:13;;;;;;;18.17;11.60;;;7.90;74.60;;;;;;5064407;28;20178;-68
2022/04/16 01:32:40;;;;;;;17.02;12.23;;;7.90;74.80;;;;;;5054799;28;20458;-68
2022/04/16 01:35:07;;;;;;;16.38;12.20;;;7.90;74.70;;;;;;5054659;28;20159;-68
2022/04/16 01:37:35;;;;;;;13.63;10.60;;;7.90;74.60;;;;;;5060687;28;20158;-68
2022/04/16 01:40:02;;;;;;;17.00;11.73;;;7.90;74.50;;;;;;5051488;28;20047;-68
2022/04/16 01:42:29;;;;;;;16.80;11.65;;;7.90;74.70;;;;;;5066409;28;20040;-68
2022/04/16 01:45:24;;;;;;;16.33;12.15;;;7.80;74.80;;;;;;5058797;28;20493;-68
2022/04/16 01:47:50;;;;;;;19.00;11.30;;;7.90;74.60;;;;;;5046355;28;20060;-68
2022/04/16 01:50:16;;;;;;;17.25;11.82;;;7.90;74.90;;;;;;5043637;28;20044;-68
2022/04/16 01:52:42;;;;;;;17.98;12.77;;;7.90;74.90;;;;;;5030137;28;20040;-68
2022/04/16 01:55:10;;;;;;;18.63;12.73;;;7.90;74.60;;;;;;5065702;28;20576;-68
2022/04/16 01:57:37;;;;;;;17.52;12.05;;;8.00;74.60;;;;;;5064142;28;20535;-68
2022/04/16 02:00:07;;;;;;;17.25;12.13;;;8.00;74.40;;;;;;5054362;28;20594;-68
2022/04/16 02:02:35;;;;;;;17.52;13.20;;;8.00;74.70;;;;;;5031647;28;20094;-68
2022/04/16 02:05:01;;;;;;;19.90;13.02;;;8.00;74.60;;;;;;5056345;28;20098;-68
2022/04/16 02:07:26;;;;;;;19.13;13.30;;;8.00;74.70;;;;;;5035579;28;20037;-68
2022/04/16 02:09:52;;;;;;;18.63;13.40;;;8.00;74.60;;;;;;5044192;28;20036;-68
2022/04/16 02:12:18;;;;;;;22.40;13.90;;;8.00;74.90;;;;;;5030612;28;20501;-68
2022/04/16 02:14:43;;;;;;;18.60;13.90;;;8.00;74.80;;;;;;5038788;28;20382;-68
2022/04/16 02:17:09;;;;;;;20.30;14.43;;;8.00;74.80;;;;;;5048481;28;20050;-68
2022/04/16 02:19:36;;;;;;;19.25;15.07;;;8.00;74.80;;;;;;5055044;28;20041;-68
2022/04/16 02:22:02;;;;;;;21.13;14.30;;;8.00;75.20;;;;;;5057405;28;20226;-68
2022/04/16 02:24:28;;;;;;;22.55;15.05;;;8.00;75.10;;;;;;5058147;28;20378;-68
2022/04/16 02:26:55;;;;;;;23.80;14.73;;;8.00;75.10;;;;;;5036684;28;20032;-67
2022/04/16 02:29:21;;;;;;;22.42;15.52;;;8.00;75.30;;;;;;5037813;28;20570;-68
2022/04/16 02:31:47;;;;;;;21.07;14.53;;;8.00;75.20;;;;;;5057409;28;20124;-68
2022/04/16 02:34:13;;;;;;;23.55;15.98;;;8.00;75.40;;;;;;5057654;28;20505;-68
2022/04/16 02:36:40;;;;;;;21.77;15.77;;;8.00;75.60;;;;;;5035749;28;20041;-68
2022/04/16 02:39:08;;;;;;;21.95;15.82;;;8.00;75.70;;;;;;5057751;28;20047;-68
2022/04/16 02:41:34;;;;;;;28.98;16.50;;;8.00;75.90;;;;;;5064582;28;20051;-68
2022/04/16 02:44:00;;;;;;;25.08;17.45;;;8.00;75.80;;;;;;5064174;28;20047;-68
2022/04/16 02:49:12;;;;;;;23.75;17.13;;;8.00;76.00;;;;;;5057090;28;20183;-68
2022/04/16 02:51:38;;;;;;;25.75;17.33;;;8.00;76.40;;;;;;5048177;28;20449;-68
2022/04/16 02:54:05;;;;;;;23.63;18.10;;;7.90;76.20;;;;;;5047155;28;20339;-68
2022/04/16 02:56:31;;;;;;;27.65;18.67;;;7.90;76.50;;;;;;5037611;28;20127;-68
2022/04/16 02:58:57;;;;;;;23.35;17.35;;;7.90;76.70;;;;;;5043083;28;20079;-68
2022/04/16 03:01:23;;;;;;;23.57;16.83;;;7.90;76.60;;;;;;5038320;28;20443;-68
2022/04/16 03:03:49;;;;;;;26.43;18.27;;;7.90;76.70;;;;;;5059532;28;20052;-68
2022/04/16 03:06:14;;;;;;;25.47;18.13;;;7.90;76.80;;;;;;5029509;28;20785;-68
2022/04/16 03:08:40;;;;;;;25.93;17.03;;;7.90;76.70;;;;;;5023758;28;20048;-68
2022/04/16 03:11:06;;;;;;;25.43;17.83;;;7.90;76.60;;;;;;5039254;28;20123;-68
2022/04/16 03:13:34;;;;;;;24.93;17.97;;;7.90;76.70;;;;;;5048362;28;20098;-68
2022/04/16 03:18:45;;;;;;;23.80;17.17;;;7.90;76.80;;;;;;5045381;28;20480;-68
2022/04/16 03:21:11;;;;;;;30.80;18.43;;;7.80;77.30;;;;;;5050353;28;20078;-68
2022/04/16 03:23:38;;;;;;;27.80;18.65;;;7.80;77.60;;;;;;5053113;28;20032;-68
2022/04/16 03:26:04;;;;;;;32.08;18.30;;;7.80;77.60;;;;;;5034220;28;20103;-68
2022/04/16 03:28:31;;;;;;;25.67;17.53;;;7.70;77.50;;;;;;5042645;28;20059;-68
2022/04/16 03:30:58;;;;;;;27.70;18.02;;;7.80;77.50;;;;;;5025402;28;20036;-68
2022/04/16 03:33:23;;;;;;;28.77;18.38;;;7.80;77.60;;;;;;5048685;28;20040;-68
2022/04/16 03:35:51;;;;;;;29.70;19.63;;;7.80;77.40;;;;;;5060345;28;20044;-68
2022/04/16 03:38:20;;;;;;;25.55;18.98;;;7.80;77.40;;;;;;5051655;28;20036;-68
2022/04/16 03:40:48;;;;;;;27.88;19.50;;;7.80;77.50;;;;;;5055814;28;20037;-68
2022/04/16 03:43:14;;;;;;;28.02;19.13;;;7.80;77.40;;;;;;5041938;28;20177;-68
2022/04/16 03:45:39;;;;;;;27.17;19.10;;;7.80;77.60;;;;;;5061205;28;20042;-68
2022/04/16 03:48:06;;;;;;;29.17;20.03;;;7.80;77.60;;;;;;5049777;28;20036;-68
2022/04/16 03:50:34;;;;;;;26.25;19.35;;;7.80;77.60;;;;;;5049616;28;20032;-68
2022/04/16 03:53:00;;;;;;;29.83;19.30;;;7.70;77.60;;;;;;5045128;28;20202;-68
2022/04/16 04:01:02;;;;;;;;;;;7.70;78.00;;;;;;5055994;28;20052;-68
2022/04/16 04:03:28;;;;;;;29.90;19.88;;;7.70;77.90;;;;;;5078867;28;19928;-68
2022/04/16 04:05:54;;;;;;;27.97;19.93;;;7.60;78.00;;;;;;5036200;28;20041;-68
2022/04/16 04:08:22;;;;;;;32.45;20.77;;;7.60;78.00;;;;;;5040427;28;20044;-68
2022/04/16 04:10:48;;;;;;;37.42;22.17;;;7.50;77.90;;;;;;5066859;28;20040;-68
2022/04/16 04:13:15;;;;;;;30.88;21.00;;;7.50;78.50;;;;;;5044973;28;20060;-68
2022/04/16 04:15:41;;;;;;;29.35;19.83;;;7.40;78.40;;;;;;5051545;28;20048;-68
2022/04/16 04:18:07;;;;;;;30.60;20.57;;;7.40;78.30;;;;;;5069183;28;20390;-68
2022/04/16 04:20:34;;;;;;;32.77;21.47;;;7.30;78.30;;;;;;5069609;28;20048;-68
2022/04/16 04:23:00;;;;;;;31.50;20.83;;;7.20;78.50;;;;;;5060113;28;20135;-68
2022/04/16 04:25:26;;;;;;;32.33;21.43;;;7.20;78.80;;;;;;5040114;28;20122;-68
2022/04/16 04:27:52;;;;;;;32.40;22.67;;;7.10;79.10;;;;;;5061462;28;20039;-68
2022/04/16 04:30:18;;;;;;;33.60;22.08;;;7.00;79.20;;;;;;5042978;28;20031;-68
2022/04/16 04:32:44;;;;;;;34.97;21.90;;;7.00;79.80;;;;;;5037846;28;20063;-68
2022/04/16 04:35:10;;;;;;;33.53;23.37;;;7.00;79.60;;;;;;5065438;28;20438;-68
2022/04/16 04:37:36;;;;;;;35.38;23.02;;;6.90;79.90;;;;;;5060001;28;20071;-68
2022/04/16 04:40:03;;;;;;;31.70;21.70;;;6.80;79.80;;;;;;5032300;28;20033;-68
2022/04/16 04:42:30;;;;;;;30.42;20.77;;;6.80;80.10;;;;;;5065438;28;20853;-68
2022/04/16 04:44:56;;;;;;;34.28;23.08;;;6.80;80.50;;;;;;5057580;28;20040;-68
2022/04/16 04:47:22;;;;;;;35.23;21.60;;;6.80;80.10;;;;;;5036895;28;20117;-68
2022/04/16 04:49:48;;;;;;;33.33;21.70;;;6.80;80.20;;;;;;5068204;28;20096;-68
2022/04/16 04:52:23;;;;;;;33.70;21.63;;;6.80;80.30;;;;;;5045903;28;20110;-68
2022/04/16 04:54:48;;;;;;;33.17;21.95;;;6.80;80.50;;;;;;5034260;28;20086;-68
2022/04/16 04:57:14;;;;;;;35.67;22.07;;;6.80;80.10;;;;;;5017455;28;20072;-68
2022/04/16 04:59:40;;;;;;;34.97;23.33;;;6.80;80.50;;;;;;5051329;28;20076;-68
2022/04/16 05:02:06;;;;;;;33.83;23.03;;;6.80;80.50;;;;;;5014208;28;20043;-68
2022/04/16 05:04:32;;;;;;;33.20;21.70;;;6.80;80.60;;;;;;5034229;28;20072;-68
2022/04/16 05:06:57;;;;;;;32.10;20.98;;;6.70;80.70;;;;;;5043795;28;20043;-68
2022/04/16 05:09:24;;;;;;;36.63;22.77;;;6.70;80.60;;;;;;5050088;28;20398;-68
2022/04/16 05:11:50;;;;;;;39.30;23.88;;;6.70;80.90;;;;;;5044001;28;20056;-68
2022/04/16 05:14:15;;;;;;;37.20;24.03;;;6.70;81.30;;;;;;5048778;28;20197;-68
2022/04/16 05:16:42;;;;;;;37.93;25.03;;;6.80;81.20;;;;;;5033248;28;20047;-68
2022/04/16 05:19:07;;;;;;;38.10;24.75;;;6.90;81.30;;;;;;5032202;28;20122;-68
2022/04/16 05:21:33;;;;;;;35.80;23.17;;;6.90;81.50;;;;;;5049941;28;20508;-68
2022/04/16 05:23:59;;;;;;;37.83;24.40;;;6.90;81.40;;;;;;5050645;28;20147;-68
2022/04/16 05:26:25;;;;;;;40.03;24.67;;;7.00;81.70;;;;;;5054861;28;20048;-68
2022/04/16 05:28:50;;;;;;;34.22;22.75;;;7.00;81.20;;;;;;5024727;28;20377;-68
2022/04/16 05:31:19;;;;;;;36.10;23.57;;;7.10;81.10;;;;;;5065561;28;20032;-68
2022/04/16 05:36:29;;;;;;;40.75;25.40;;;7.10;81.30;;;;;;5049113;28;20048;-68
2022/04/16 05:38:55;;;;;;;34.77;24.83;;;7.20;81.20;;;;;;5064242;28;20123;-68
2022/04/16 05:41:20;;;;;;;37.80;25.27;;;7.30;80.80;;;;;;5037422;28;20499;-68
2022/04/16 05:43:48;;;;;;;36.87;24.10;;;7.30;80.90;;;;;;5050902;28;20072;-68
2022/04/16 05:46:13;;;;;;;37.83;25.08;;;7.40;80.70;;;;;;5040720;28;20505;-68
2022/04/16 05:48:39;;;;;;;41.00;26.07;;;7.50;80.90;;;;;;5054216;28;20056;-68
2022/04/16 05:51:05;;;;;;;39.30;24.87;;;7.60;80.90;;;;;;5056856;28;20036;-68
2022/04/16 05:53:31;;;;;;;37.57;25.50;;;7.70;80.90;;;;;;5032896;28;20074;-68
2022/04/16 05:55:58;;;;;;;36.75;24.95;;;7.80;80.50;;;;;;5048438;28;20048;-68
2022/04/16 05:58:23;;;;;;;38.67;25.25;;;8.00;79.80;;;;;;5046355;28;20055;-68
2022/04/16 06:00:49;;;;;;;37.80;26.00;;;8.10;79.40;;;;;;5038695;28;20044;-68
2022/04/16 06:03:15;;;;;;;36.33;25.37;;;8.20;79.20;;;;;;5041795;28;20459;-68
2022/04/16 06:05:41;;;;;;;40.17;25.85;;;8.20;79.30;;;;;;5017244;28;20048;-68
2022/04/16 06:08:07;;;;;;;37.07;25.23;;;8.30;79.00;;;;;;5045535;28;20036;-68
2022/04/16 06:10:33;;;;;;;41.07;25.33;;;8.40;78.90;;;;;;5035053;28;20044;-68
2022/04/16 06:12:58;;;;;;;41.33;26.03;;;8.40;78.90;;;;;;5029976;28;20068;-68
2022/04/16 06:15:24;;;;;;;35.60;24.37;;;8.40;78.90;;;;;;5052586;28;20044;-68
2022/04/16 06:17:50;;;;;;;35.53;24.33;;;8.40;79.00;;;;;;5051039;28;20044;-68
2022/04/16 06:20:16;;;;;;;33.00;24.03;;;8.50;78.80;;;;;;5043420;28;20041;-68
2022/04/16 06:22:42;;;;;;;34.17;23.67;;;8.50;78.60;;;;;;5050425;28;20051;-68
2022/04/16 06:25:08;;;;;;;34.43;24.43;;;8.50;78.50;;;;;;5035850;28;20041;-68
2022/04/16 06:27:40;;;;;;;34.13;24.52;;;8.60;78.30;;;;;;5058108;28;20799;-68
2022/04/16 06:30:08;;;;;;;35.30;24.13;;;8.70;78.20;;;;;;5044667;28;20044;-68
2022/04/16 06:32:34;;;;;;;36.40;24.55;;;8.70;77.90;;;;;;5039549;28;20063;-68
2022/04/16 06:35:01;;;;;;;33.17;23.48;;;8.70;77.20;;;;;;5053457;28;20102;-68
2022/04/16 06:37:27;;;;;;;30.48;21.70;;;8.70;77.10;;;;;;5047125;28;20040;-68
2022/04/16 06:39:53;;;;;;;28.85;20.17;;;8.70;76.80;;;;;;5029484;28;20041;-68
2022/04/16 06:42:18;;;;;;;26.10;19.37;;;8.70;76.40;;;;;;5047613;28;20037;-68
2022/04/16 06:44:44;;;;;;;27.57;19.93;;;8.70;76.20;;;;;;5032897;28;20047;-68
2022/04/16 06:47:09;;;;;;;24.90;17.97;;;8.70;75.60;;;;;;5050232;28;20509;-68
2022/04/16 06:49:35;;;;;;;25.93;18.20;;;8.70;75.50;;;;;;5040292;28;20064;-68
2022/04/16 06:52:01;;;;;;;34.17;17.77;;;8.70;75.10;;;;;;5046838;28;20039;-68
2022/04/16 06:54:26;;;;;;;23.63;16.23;;;8.80;74.40;;;;;;5039173;28;20170;-68
2022/04/16 06:56:52;;;;;;;22.70;15.83;;;8.90;74.10;;;;;;5064237;28;20029;-68
2022/04/16 06:59:18;;;;;;;23.30;15.80;;;9.00;73.80;;;;;;5042355;28;20741;-68
2022/04/16 07:01:43;;;;;;;23.67;15.67;;;9.00;73.60;;;;;;5031937;28;20049;-68
2022/04/16 07:04:09;;;;;;;22.50;15.73;;;9.00;73.60;;;;;;5044074;28;20109;-68
2022/04/16 07:06:35;;;;;;;23.40;16.43;;;9.00;73.50;;;;;;5053314;28;20040;-68
2022/04/16 07:09:00;;;;;;;23.47;16.07;;;9.00;73.50;;;;;;5036296;28;20581;-68
2022/04/16 07:11:27;;;;;;;24.13;16.00;;;9.00;73.20;;;;;;5062894;28;20504;-68
2022/04/16 07:13:53;;;;;;;22.30;15.33;;;9.00;72.70;;;;;;5029149;28;20095;-68
2022/04/16 07:16:19;;;;;;;26.73;15.30;;;9.00;72.40;;;;;;5061352;28;20049;-68
2022/04/16 07:18:45;;;;;;;18.13;13.73;;;9.10;72.40;;;;;;5038157;28;20049;-68
2022/04/16 07:21:11;;;;;;;21.23;13.88;;;9.10;72.30;;;;;;5046279;28;20044;-68
2022/04/16 07:23:37;;;;;;;19.33;12.93;;;9.30;72.70;;;;;;5059981;28;20040;-68
2022/04/16 07:26:02;;;;;;;19.33;13.43;;;9.40;72.20;;;;;;5059777;28;20535;-68
2022/04/16 07:28:28;;;;;;;19.47;12.47;;;9.60;71.50;;;;;;5042369;28;20037;-68
2022/04/16 07:30:54;;;;;;;20.30;12.87;;;9.60;70.90;;;;;;5021901;28;20041;-68
2022/04/16 07:33:19;;;;;;;20.00;13.07;;;9.50;71.00;;;;;;5047235;28;20118;-68
2022/04/16 07:35:45;;;;;;;19.20;12.37;;;9.50;70.40;;;;;;5049288;28;20098;-68
2022/04/16 07:38:11;;;;;;;18.70;12.17;;;9.50;70.80;;;;;;5030516;28;20513;-68
2022/04/16 07:40:38;;;;;;;20.40;12.50;;;9.50;70.50;;;;;;5057127;28;20551;-68
2022/04/16 07:43:05;;;;;;;17.58;11.75;;;9.50;70.70;;;;;;5050308;28;20328;-68
2022/04/16 07:45:32;;;;;;;17.90;12.18;;;9.50;70.70;;;;;;5039628;28;20072;-68
2022/04/16 07:47:57;;;;;;;16.35;11.10;;;9.50;70.80;;;;;;5053098;28;20509;-68
2022/04/16 07:50:23;;;;;;;17.80;11.20;;;9.60;70.50;;;;;;5022286;28;20036;-68
2022/04/16 07:52:49;;;;;;;14.87;10.97;;;9.60;70.50;;;;;;5033408;28;20045;-68
2022/04/16 07:55:15;;;;;;;16.67;11.60;;;9.70;70.60;;;;;;5060145;28;20040;-68
2022/04/16 07:57:41;;;;;;;19.58;11.32;;;9.80;70.20;;;;;;5066238;28;20044;-68
2022/04/16 08:00:09;;;;;;;16.08;10.90;;;9.90;69.60;;;;;;5046554;28;20048;-68
2022/04/16 08:02:35;;;;;;;17.73;11.35;;;9.90;69.40;;;;;;5054316;28;20033;-68
2022/04/16 08:05:01;;;;;;;15.43;10.77;;;9.90;69.50;;;;;;5047361;28;20045;-68
2022/04/16 08:07:27;;;;;;;15.52;10.48;;;10.00;69.10;;;;;;5041197;28;20073;-68
2022/04/16 08:09:52;;;;;;;15.80;10.43;;;10.00;68.70;;;;;;5030089;28;20079;-68
2022/04/16 08:12:18;;;;;;;18.33;11.87;;;10.10;69.30;;;;;;5038524;28;20079;-68
2022/04/16 08:14:44;;;;;;;16.07;10.73;;;10.20;69.40;;;;;;5034050;28;20048;-68
2022/04/16 08:17:10;;;;;;;16.43;11.07;;;10.30;68.70;;;;;;5062108;28;20048;-68
2022/04/16 08:19:35;;;;;;;15.67;10.87;;;10.40;68.80;;;;;;5053979;28;20045;-68
2022/04/16 08:22:06;;;;;;;16.27;10.97;;;10.50;69.20;;;;;;5038513;28;20099;-68
2022/04/16 08:27:02;;;;;;;16.90;10.43;;;10.70;67.80;;;;;;5050463;28;20047;-68
2022/04/16 08:29:28;;;;;;;15.07;10.40;;;10.70;67.30;;;;;;5062462;28;20396;-68
2022/04/16 08:31:54;;;;;;;15.87;11.23;;;10.80;67.40;;;;;;5065761;28;20037;-68
2022/04/16 08:34:20;;;;;;;15.47;9.70;;;10.90;67.30;;;;;;5048927;28;20516;-68
2022/04/16 08:36:45;;;;;;;14.17;9.97;;;11.00;67.10;;;;;;5042146;28;20619;-68
2022/04/16 08:39:11;;;;;;;14.80;10.07;;;11.00;66.60;;;;;;5023802;28;20037;-68
2022/04/16 08:41:38;;;;;;;14.35;9.63;;;11.10;67.00;;;;;;5055215;28;20106;-68
2022/04/16 08:44:05;;;;;;;15.07;9.80;;;11.10;66.90;;;;;;5040950;28;20587;-69
2022/04/16 08:46:32;;;;;;;12.60;8.75;;;11.30;66.50;;;;;;5031346;28;20686;-69
2022/04/16 08:48:59;;;;;;;13.55;9.32;;;11.40;66.80;;;;;;5042570;28;20049;-68
2022/04/16 08:51:30;;;;;;;13.85;8.60;;;11.50;65.00;;;;;;5031730;28;20044;-68
2022/04/16 08:53:56;;;;;;;10.70;8.48;;;11.50;64.90;;;;;;5050414;28;20052;-68
2022/04/16 08:56:22;;;;;;;14.87;9.30;;;11.60;64.50;;;;;;5036713;28;20040;-69
2022/04/16 08:58:47;;;;;;;12.07;8.67;;;11.70;65.10;;;;;;5055121;28;20595;-69
2022/04/16 09:01:13;;;;;;;14.27;8.77;;;11.70;64.00;;;;;;5049186;28;20045;-68
2022/04/16 09:03:40;;;;;;;11.53;8.03;;;11.70;63.40;;;;;;5041466;28;20049;-69
2022/04/16 09:06:07;;;;;;;14.00;9.48;;;11.90;63.70;;;;;;5051806;28;20052;-69
2022/04/16 09:08:35;;;;;;;13.93;9.52;;;11.90;63.60;;;;;;5060275;28;20064;-69
2022/04/16 09:11:24;;;;;;;12.98;8.88;;;12.00;63.80;;;;;;5040946;28;20041;-69
2022/04/16 09:13:49;;;;;;;12.00;8.55;;;12.10;63.30;;;;;;5036806;28;20048;-69
2022/04/16 09:16:16;;;;;;;12.20;7.97;;;12.20;63.10;;;;;;5061075;28;20040;-69
2022/04/16 09:18:45;;;;;;;10.63;7.55;;;12.30;62.30;;;;;;5025989;28;20059;-69
2022/04/16 09:21:13;;;;;;;11.05;7.75;;;12.30;62.40;;;;;;5060734;28;20409;-69
2022/04/16 09:23:47;;;;;;;10.98;8.10;;;12.50;62.20;;;;;;5058418;28;20114;-69
2022/04/16 09:26:34;;;;;;;10.75;7.72;;;12.50;61.30;;;;;;5036411;28;20036;-68
2022/04/16 09:29:17;;;;;;;10.37;7.77;;;12.60;60.60;;;;;;5042552;28;20553;-68
2022/04/16 09:31:47;;;;;;;12.03;7.63;;;12.70;61.30;;;;;;5058103;28;20322;-68
2022/04/16 09:34:17;;;;;;;10.30;7.20;;;12.80;60.50;;;;;;5045309;28;20739;-68
2022/04/16 09:36:44;;;;;;;9.23;6.83;;;12.80;60.50;;;;;;5027854;28;20286;-68
2022/04/16 09:39:10;;;;;;;9.30;6.63;;;12.90;60.10;;;;;;5062860;28;20369;-68
2022/04/16 09:41:38;;;;;;;8.77;6.47;;;13.00;59.30;;;;;;5039624;28;20298;-68
2022/04/16 09:44:15;;;;;;;9.20;6.47;;;13.00;58.70;;;;;;5063723;28;20388;-68
2022/04/16 09:46:44;;;;;;;9.00;6.30;;;13.10;58.40;;;;;;5050285;28;20297;-68
2022/04/16 09:49:12;;;;;;;8.80;6.40;;;13.10;58.10;;;;;;5053938;28;20369;-68
2022/04/16 09:51:40;;;;;;;10.23;5.93;;;13.20;56.80;;;;;;5045923;28;20365;-68
2022/04/16 09:54:06;;;;;;;10.43;6.07;;;13.20;57.00;;;;;;5039121;28;20323;-68
2022/04/16 09:56:34;;;;;;;8.13;5.30;;;13.30;56.60;;;;;;5030530;28;20282;-68
2022/04/16 09:59:09;;;;;;;11.43;6.10;;;13.30;56.60;;;;;;5059541;28;20102;-68
2022/04/16 10:01:39;;;;;;;9.85;5.50;;;13.40;56.20;;;;;;5050187;28;20642;-68
2022/04/16 10:04:07;;;;;;;8.03;5.37;;;13.50;56.80;;;;;;5058386;28;20033;-68
2022/04/16 10:06:33;;;;;;;7.37;5.10;;;13.60;55.90;;;;;;5037272;28;20306;-68
2022/04/16 10:09:13;;;;;;;7.47;4.23;;;13.70;54.20;;;;;;5067200;28;21179;-68
2022/04/16 10:14:49;;;;;;;6.67;4.23;;;13.80;54.70;;;;;;5048201;28;20287;-68
2022/04/16 10:17:15;;;;;;;4.47;3.30;;;13.90;54.00;;;;;;5062778;28;20324;-68
2022/04/16 10:19:46;;;;;;;6.23;3.67;;;13.90;53.00;;;;;;5070123;28;20330;-68
2022/04/16 10:22:24;;;;;;;5.77;3.47;;;14.00;53.50;;;;;;5066300;28;20043;-68
2022/04/16 10:24:50;;;;;;;6.13;4.30;;;14.00;54.00;;;;;;5047637;28;20302;-68
2022/04/16 10:27:27;;;;;;;4.53;2.83;;;14.10;54.30;;;;;;5038614;28;20282;-68
2022/04/16 10:29:58;;;;;;;6.20;3.30;;;14.20;52.90;;;;;;5069174;28;20347;-68
2022/04/16 10:32:38;;;;;;;3.57;2.53;;;14.20;51.90;;;;;;5035597;28;20369;-68
2022/04/16 10:35:05;;;;;;;3.53;2.10;;;14.30;51.60;;;;;;5059570;28;20828;-68
2022/04/16 10:37:40;;;;;;;5.33;2.80;;;14.30;50.80;;;;;;5065455;28;20376;-68
2022/04/16 10:40:23;;;;;;;3.55;2.00;;;14.30;51.00;;;;;;5068178;28;20324;-68
2022/04/16 10:42:58;;;;;;;4.33;2.40;;;14.20;50.10;;;;;;5047816;28;20163;-68
2022/04/16 10:45:25;;;;;;;2.67;1.90;;;14.30;50.70;;;;;;5062256;28;20306;-68
2022/04/16 10:47:54;;;;;;;4.53;1.90;;;14.30;50.80;;;;;;5052120;28;20287;-68
2022/04/16 10:50:21;;;;;;;5.13;2.13;;;14.40;49.90;;;;;;5037826;28;20343;-68
2022/04/16 10:52:53;;;;;;;4.27;2.30;;;14.50;49.50;;;;;;5043768;28;20286;-68
2022/04/16 10:55:27;;;;;;;3.23;1.50;;;14.50;49.80;;;;;;5040298;28;21010;-68
2022/04/16 10:58:06;;;;;;;2.60;1.40;;;14.50;49.70;;;;;;5071754;28;20326;-68
2022/04/16 11:00:46;;;;;;;3.07;1.50;;;14.60;49.10;;;;;;5037670;28;20346;-68
2022/04/16 11:03:14;;;;;;;2.23;1.43;;;14.70;49.00;;;;;;5039833;28;20298;-68
2022/04/16 11:05:43;;;;;;;3.53;1.70;;;14.80;49.20;;;;;;5063472;28;20293;-68
2022/04/16 11:08:14;;;;;;;1.83;1.33;;;14.80;48.50;;;;;;5042950;28;20375;-68
2022/04/16 11:10:41;;;;;;;1.93;1.23;;;14.90;49.20;;;;;;5056221;28;20279;-68
2022/04/16 11:13:07;;;;;;;2.83;1.37;;;15.00;48.90;;;;;;5068772;28;20298;-68
2022/04/16 11:15:33;;;;;;;3.43;1.20;;;15.10;48.40;;;;;;5029445;28;20385;-68
2022/04/16 11:18:01;;;;;;;2.97;1.40;;;15.10;48.40;;;;;;5064370;28;21131;-68
2022/04/16 11:20:27;;;;;;;4.20;1.70;;;15.10;47.10;;;;;;5049929;28;20459;-68
2022/04/16 11:22:57;;;;;;;3.93;1.20;;;15.20;46.80;;;;;;5055571;28;20810;-68
2022/04/16 11:25:24;;;;;;;2.80;1.00;;;15.30;46.80;;;;;;5035513;28;20294;-68
2022/04/16 11:36:11;;;;;;;2.20;1.05;;;15.40;46.10;;;;;;5061382;28;20299;-68
2022/04/16 11:38:41;;;;;;;1.80;1.17;;;15.50;46.10;;;;;;5062718;28;20036;-68
2022/04/16 11:41:10;;;;;;;1.83;0.97;;;15.60;46.40;;;;;;5059577;28;20298;-68
2022/04/16 11:43:38;;;;;;;5.10;1.20;;;15.60;44.90;;;;;;5048098;28;20310;-68
2022/04/16 11:46:11;;;;;;;1.80;1.10;;;15.60;44.40;;;;;;5046308;28;20301;-68
2022/04/16 11:48:42;;;;;;;7.63;1.93;;;15.60;44.90;;;;;;5037061;28;20279;-68
2022/04/16 11:51:10;;;;;;;6.47;1.53;;;15.60;44.20;;;;;;5057012;28;20278;-68
2022/04/16 11:53:47;;;;;;;4.53;1.30;;;15.60;43.90;;;;;;5024046;28;20283;-69
2022/04/16 11:56:22;;;;;;;2.33;1.27;;;15.50;44.30;;;;;;5050943;28;20378;-68
2022/04/16 11:58:51;;;;;;;3.15;1.00;;;15.60;45.10;;;;;;5059095;28;20290;-68
2022/04/16 12:01:21;;;;;;;5.77;1.10;;;15.80;43.60;;;;;;5033719;28;20122;-68
2022/04/16 12:03:48;;;;;;;4.97;1.03;;;15.80;43.80;;;;;;5040029;28;20321;-68
2022/04/16 12:06:15;;;;;;;2.00;1.00;;;15.80;43.10;;;;;;5066838;28;20300;-68
2022/04/16 12:08:46;;;;;;;2.33;1.00;;;15.80;42.80;;;;;;5061274;28;20302;-68
2022/04/16 12:11:13;;;;;;;2.57;1.27;;;15.90;43.90;;;;;;5060095;28;21236;-68
2022/04/16 12:13:43;;;;;;;3.03;1.13;;;16.00;44.20;;;;;;5044370;28;20377;-68
2022/04/16 12:16:11;;;;;;;1.83;0.70;;;16.10;43.60;;;;;;5039459;28;20286;-68
2022/04/16 12:18:38;;;;;;;1.30;0.87;;;16.20;43.40;;;;;;5035282;28;20384;-68
2022/04/16 12:21:07;;;;;;;1.83;1.10;;;16.20;42.30;;;;;;5052436;28;20300;-68
2022/04/16 12:23:33;;;;;;;2.07;0.90;;;16.20;42.30;;;;;;5040233;28;20382;-68
2022/04/16 12:26:07;;;;;;;2.37;0.97;;;16.40;42.50;;;;;;5056885;28;20857;-68
2022/04/16 12:28:38;;;;;;;2.67;1.20;;;16.40;42.60;;;;;;5067540;28;20636;-69
2022/04/16 12:31:04;;;;;;;2.30;1.00;;;16.50;42.80;;;;;;5035602;28;20281;-69
2022/04/16 12:33:30;;;;;;;1.60;1.10;;;16.70;43.10;;;;;;5069875;28;20298;-69
2022/04/16 12:35:57;;;;;;;4.97;1.53;;;16.70;40.40;;;;;;5045896;28;20408;-69
2022/04/16 12:38:25;;;;;;;2.00;1.20;;;16.60;40.20;;;;;;5044313;28;20051;-69
2022/04/16 12:40:52;;;;;;;1.67;1.30;;;16.50;40.70;;;;;;5030836;28;20286;-69
2022/04/16 12:43:18;;;;;;;2.53;1.10;;;16.60;40.40;;;;;;5045931;28;20324;-69
2022/04/16 12:45:43;;;;;;;5.13;0.90;;;16.60;40.50;;;;;;5039831;28;20298;-69
2022/04/16 12:48:09;;;;;;;1.50;0.87;;;16.70;39.30;;;;;;5059520;28;20037;-68
2022/04/16 12:50:35;;;;;;;3.60;0.73;;;16.50;38.20;;;;;;5057027;28;20067;-69
2022/04/16 12:53:04;;;;;;;1.13;0.60;;;16.50;38.20;;;;;;5019904;28;20041;-69
2022/04/16 12:55:30;;;;;;;2.20;0.90;;;16.50;37.70;;;;;;5052194;28;20298;-69
2022/04/16 12:57:56;;;;;;;1.23;0.60;;;16.60;38.50;;;;;;5029413;28;20282;-69
2022/04/16 13:00:22;;;;;;;2.03;0.77;;;16.60;37.90;;;;;;5035591;28;20707;-69
2022/04/16 13:02:48;;;;;;;2.27;0.50;;;16.60;36.40;;;;;;5013575;28;20287;-69
2022/04/16 13:05:16;;;;;;;4.30;0.63;;;16.70;38.00;;;;;;5032278;28;20335;-69
2022/04/16 13:07:44;;;;;;;1.77;0.67;;;16.90;37.40;;;;;;5028521;28;20386;-69